createdAt,value
2022-12-06T00:01:32.254Z,97796.03
2022-12-06T00:04:06.513Z,97792.56
2022-12-06T00:06:41.279Z,97787.31
2022-12-06T00:09:10.151Z,97784.69
2022-12-06T00:11:38.439Z,97784.69
2022-12-06T00:14:08.630Z,97782.16
2022-12-06T00:16:37.910Z,97781.44
2022-12-06T00:19:07.878Z,97786.81
2022-12-06T00:21:38.265Z,97783.34
2022-12-06T00:24:09.187Z,97776.28
2022-12-06T00:26:38.318Z,97775.66
2022-12-06T00:29:08.062Z,97776.53
2022-12-06T00:31:36.566Z,97781.78
2022-12-06T00:34:05.142Z,97778.44
2022-12-06T00:36:37.976Z,97778.53
2022-12-06T00:39:10.414Z,97776.75
2022-12-06T00:41:39.409Z,97772.47
2022-12-06T00:44:07.975Z,97766.34
2022-12-06T00:46:37.304Z,97769.09
2022-12-06T00:49:07.717Z,97765.63
2022-12-06T00:51:38.759Z,97764.81
2022-12-06T00:54:07.944Z,97767.44
2022-12-06T00:56:37.631Z,97767.56
2022-12-06T00:59:06.568Z,97765.84
2022-12-06T01:01:36.771Z,97765.84
2022-12-06T01:04:07.623Z,97755.69
2022-12-06T01:06:38.474Z,97757.63
2022-12-06T01:09:09.224Z,97765.53
2022-12-06T01:11:37.854Z,97756.78
2022-12-06T01:14:06.693Z,97759.41
2022-12-06T01:16:35.532Z,97754.25
2022-12-06T01:19:07.210Z,97757.13
2022-12-06T01:21:36.876Z,97754.72
2022-12-06T01:24:05.908Z,97763.59
2022-12-06T01:26:36.935Z,97760.22
2022-12-06T01:29:05.538Z,97748.16
2022-12-06T01:31:38.788Z,97755.31
2022-12-06T01:34:15.475Z,97741.56
2022-12-06T01:36:45.853Z,97744.34
2022-12-06T01:39:14.305Z,97748.25
2022-12-06T01:41:43.402Z,97747.56
2022-12-06T01:44:41.768Z,97747.69
2022-12-06T01:47:16.480Z,97734.63
2022-12-06T01:49:48.585Z,97735.69
2022-12-06T01:52:18.899Z,97732.47
2022-12-06T01:54:47.412Z,97734.50
2022-12-06T01:57:17.647Z,97727.56
2022-12-06T01:59:46.571Z,97726.81
2022-12-06T02:02:15.409Z,97727.78
2022-12-06T02:04:44.788Z,97721.91
2022-12-06T02:07:13.875Z,97735.06
2022-12-06T02:09:44.540Z,97728.50
2022-12-06T02:12:14.922Z,97719.88
2022-12-06T02:14:48.870Z,97732.09
2022-12-06T02:17:32.861Z,97725.25
2022-12-06T02:20:12.294Z,97715.81
2022-12-06T02:23:32.314Z,97715.81
2022-12-06T02:26:29.908Z,97715.31
2022-12-06T02:29:38.156Z,97712.91
2022-12-06T02:32:11.866Z,97717.47
2022-12-06T02:34:46.527Z,97706.94
2022-12-06T02:37:19.874Z,97710.28
2022-12-06T02:39:56.029Z,97701.44
2022-12-06T02:42:29.667Z,97699.53
2022-12-06T02:45:04.722Z,97700.25
2022-12-06T02:47:37.947Z,97699.16
2022-12-06T02:50:11.921Z,97696.31
2022-12-06T02:52:44.753Z,97693.31
2022-12-06T02:55:14.799Z,97698.47
2022-12-06T02:57:47.122Z,97680.66
2022-12-06T03:00:35.742Z,97670.00
2022-12-06T03:03:41.275Z,97677.91
2022-12-06T03:06:57.273Z,97691.88
2022-12-06T03:09:49.491Z,97688.31
2022-12-06T03:12:29.082Z,97690.81
2022-12-06T03:15:11.354Z,97685.44
2022-12-06T03:17:48.568Z,97698.50
2022-12-06T03:20:27.812Z,97691.28
2022-12-06T03:23:03.482Z,97689.38
2022-12-06T03:25:35.486Z,97690.25
2022-12-06T03:28:06.797Z,97693.69
2022-12-06T03:30:36.308Z,97684.84
2022-12-06T03:33:05.181Z,97692.63
2022-12-06T03:35:36.909Z,97690.69
2022-12-06T03:38:11.548Z,97686.16
2022-12-06T03:40:45.412Z,97685.19
2022-12-06T03:43:13.724Z,97685.06
2022-12-06T03:45:48.176Z,97681.38
2022-12-06T03:48:23.052Z,97681.50
2022-12-06T03:50:58.814Z,97682.19
2022-12-06T03:53:27.301Z,97682.31
2022-12-06T03:55:55.558Z,97684.13
2022-12-06T03:58:23.867Z,97685.91
2022-12-06T04:00:52.192Z,97687.72
2022-12-06T04:03:20.467Z,97696.44
2022-12-06T04:05:48.750Z,97692.97
2022-12-06T04:08:18.401Z,97687.72
2022-12-06T04:10:46.667Z,97682.31
2022-12-06T04:13:19.601Z,97677.06
2022-12-06T04:15:48.489Z,97675.28
2022-12-06T04:18:18.526Z,97671.66
2022-12-06T04:21:17.903Z,97676.00
2022-12-06T04:23:50.288Z,97676.94
2022-12-06T04:26:21.364Z,97679.31
2022-12-06T04:29:09.488Z,97680.19
2022-12-06T04:31:57.038Z,97689.63
2022-12-06T04:34:42.819Z,97681.72
2022-12-06T04:37:28.920Z,97686.16
2022-12-06T04:39:58.982Z,97689.38
2022-12-06T04:42:45.167Z,97684.84
2022-12-06T04:45:13.575Z,97689.13
2022-12-06T04:47:41.779Z,97692.38
2022-12-06T04:50:10.640Z,97687.97
2022-12-06T04:52:38.944Z,97678.00
2022-12-06T04:55:09.552Z,97670.81
2022-12-06T04:57:37.836Z,97675.00
2022-12-06T05:00:08.227Z,97673.09
2022-12-06T05:02:36.459Z,97667.59
2022-12-06T05:05:05.088Z,97670.09
2022-12-06T05:07:33.424Z,97669.00
2022-12-06T05:10:02.007Z,97666.38
2022-12-06T05:12:31.844Z,97669.72
2022-12-06T05:15:00.172Z,97667.78
2022-12-06T05:17:28.399Z,97668.63
2022-12-06T05:19:56.640Z,97674.75
2022-12-06T05:22:24.916Z,97677.28
2022-12-06T05:24:53.175Z,97660.63
2022-12-06T05:27:21.403Z,97668.41
2022-12-06T05:29:50.958Z,97664.09
2022-12-06T05:32:19.170Z,97664.91
2022-12-06T05:34:47.404Z,97665.75
2022-12-06T05:37:15.685Z,97666.59
2022-12-06T05:39:44.108Z,97667.41
2022-12-06T05:42:19.889Z,97670.06
2022-12-06T05:44:51.918Z,97666.59
2022-12-06T05:47:20.118Z,97672.69
2022-12-06T05:49:48.476Z,97670.91
2022-12-06T05:52:16.667Z,97666.47
2022-12-06T05:54:44.928Z,97668.28
2022-12-06T05:57:13.230Z,97671.75
2022-12-06T05:59:41.471Z,97657.59
2022-12-06T06:02:11.178Z,97659.41
2022-12-06T06:04:39.464Z,97644.56
2022-12-06T06:07:07.690Z,97644.69
2022-12-06T06:09:35.947Z,97652.47
2022-12-06T06:12:09.434Z,97646.22
2022-12-06T06:14:40.447Z,97646.22
2022-12-06T06:17:10.329Z,97648.03
2022-12-06T06:19:38.621Z,97643.59
2022-12-06T06:22:07.135Z,97656.88
2022-12-06T06:24:37.577Z,97651.75
2022-12-06T06:27:05.972Z,97656.88
2022-12-06T06:29:34.328Z,97657.84
2022-12-06T06:32:02.663Z,97660.50
2022-12-06T06:34:32.356Z,97651.75
2022-12-06T06:37:00.591Z,97662.16
2022-12-06T06:39:28.859Z,97662.16
2022-12-06T06:41:57.055Z,97671.03
2022-12-06T06:44:25.294Z,97665.75
2022-12-06T06:46:53.486Z,97667.53
2022-12-06T06:49:21.865Z,97664.91
2022-12-06T06:51:51.510Z,97666.72
2022-12-06T06:54:19.779Z,97672.94
2022-12-06T06:56:48.106Z,97674.75
2022-12-06T06:59:16.383Z,97674.75
2022-12-06T07:01:45.014Z,97672.13
2022-12-06T07:04:13.344Z,97664.22
2022-12-06T07:06:41.621Z,97672.94
2022-12-06T07:09:12.092Z,97668.63
2022-12-06T07:11:40.375Z,97669.50
2022-12-06T07:14:08.671Z,97673.91
2022-12-06T07:16:37.189Z,97674.03
2022-12-06T07:19:09.072Z,97675.00
2022-12-06T07:21:37.832Z,97675.00
2022-12-06T07:24:06.852Z,97678.56
2022-12-06T07:26:36.795Z,97670.78
2022-12-06T07:29:05.086Z,97673.44
2022-12-06T07:31:33.882Z,97676.91
2022-12-06T07:34:03.844Z,97678.56
2022-12-06T07:36:33.684Z,97670.66
2022-12-06T07:39:02.566Z,97676.66
2022-12-06T07:41:49.295Z,97680.16
2022-12-06T07:44:36.702Z,97681.09
2022-12-06T07:47:05.415Z,97691.75
2022-12-06T07:49:33.658Z,97687.31
2022-12-06T07:52:02.307Z,97692.34
2022-12-06T07:54:30.653Z,97689.59
2022-12-06T07:56:59.016Z,97688.63
2022-12-06T07:59:28.848Z,97682.41
2022-12-06T08:01:57.208Z,97679.78
2022-12-06T08:04:26.106Z,97672.69
2022-12-06T08:06:54.792Z,97685.75
2022-12-06T08:09:23.181Z,97680.34
2022-12-06T08:11:51.569Z,97677.59
2022-12-06T08:14:19.849Z,97683.72
2022-12-06T08:16:49.447Z,97687.19
2022-12-06T08:19:17.822Z,97686.09
2022-12-06T08:21:46.190Z,97683.47
2022-12-06T08:24:14.560Z,97686.94
2022-12-06T08:26:42.883Z,97691.25
2022-12-06T08:29:11.245Z,97691.25
2022-12-06T08:31:39.655Z,97693.88
2022-12-06T08:34:09.455Z,97703.56
2022-12-06T08:36:40.502Z,97699.88
2022-12-06T08:39:09.902Z,97698.06
2022-12-06T08:41:55.576Z,97694.34
2022-12-06T08:44:24.553Z,97694.47
2022-12-06T08:46:53.136Z,97691.00
2022-12-06T08:49:24.710Z,97690.75
2022-12-06T08:51:53.639Z,97689.91
2022-12-06T08:54:25.041Z,97697.69
2022-12-06T08:56:54.160Z,97689.91
2022-12-06T08:59:23.177Z,97689.91
2022-12-06T09:01:51.583Z,97696.88
2022-12-06T09:04:20.092Z,97695.91
2022-12-06T09:06:50.020Z,97691.34
2022-12-06T09:09:21.313Z,97681.63
2022-12-06T09:11:51.122Z,97668.44
2022-12-06T09:14:22.170Z,97671.34
2022-12-06T09:16:51.914Z,97676.84
2022-12-06T09:19:20.881Z,97672.69
2022-12-06T09:21:50.916Z,97669.25
2022-12-06T09:24:20.060Z,97668.03
2022-12-06T09:26:48.772Z,97666.47
2022-12-06T09:29:18.031Z,97663.84
2022-12-06T09:31:46.594Z,97671.75
2022-12-06T09:34:15.396Z,97667.78
2022-12-06T09:36:47.730Z,97660.84
2022-12-06T09:39:22.823Z,97666.13
2022-12-06T09:42:25.499Z,97652.72
2022-12-06T09:45:15.159Z,97643.19
2022-12-06T09:48:31.112Z,97649.63
2022-12-06T09:51:13.196Z,97644.41
2022-12-06T09:53:58.018Z,97646.91
2022-12-06T09:56:35.384Z,97638.06
2022-12-06T09:59:16.836Z,97630.03
2022-12-06T10:02:04.170Z,97630.03
2022-12-06T10:05:06.087Z,97650.84
2022-12-06T10:07:45.568Z,97646.53
2022-12-06T10:10:22.677Z,97650.22
2022-12-06T10:13:02.870Z,97643.38
2022-12-06T10:15:45.560Z,97632.22
2022-12-06T10:18:36.906Z,97639.28
2022-12-06T10:21:17.232Z,97643.78
2022-12-06T10:24:01.878Z,97636.22
2022-12-06T10:26:38.366Z,97619.88
2022-12-06T10:29:27.381Z,97614.84
2022-12-06T10:32:00.644Z,97617.78
2022-12-06T10:34:49.047Z,97613.97
2022-12-06T10:37:34.490Z,97614.53
2022-12-06T10:40:12.819Z,97617.91
2022-12-06T10:42:49.168Z,97600.84
2022-12-06T10:45:44.787Z,97608.75
2022-12-06T10:48:22.362Z,97613.22
2022-12-06T10:50:56.930Z,97614.88
2022-12-06T10:53:29.944Z,97614.75
2022-12-06T10:56:02.602Z,97610.06
2022-12-06T10:58:37.510Z,97612.41
2022-12-06T11:01:13.631Z,97606.88
2022-12-06T11:03:46.104Z,97604.00
2022-12-06T11:06:20.929Z,97611.63
2022-12-06T11:08:53.864Z,97607.81
2022-12-06T11:11:28.221Z,97610.56
2022-12-06T11:14:02.694Z,97609.59
2022-12-06T11:16:37.820Z,97614.75
2022-12-06T11:19:21.638Z,97608.47
2022-12-06T11:21:55.472Z,97617.00
2022-12-06T11:24:32.368Z,97601.28
2022-12-06T11:27:05.574Z,97602.00
2022-12-06T11:29:33.863Z,97599.09
2022-12-06T11:32:07.629Z,97594.50
2022-12-06T11:34:43.649Z,97587.44
2022-12-06T11:37:17.987Z,97586.34
2022-12-06T11:39:48.036Z,97585.25
2022-12-06T11:42:25.197Z,97592.06
2022-12-06T11:45:00.308Z,97583.91
2022-12-06T11:47:30.026Z,97581.84
2022-12-06T11:50:04.254Z,97581.44
2022-12-06T11:52:40.563Z,97578.66
2022-12-06T11:55:18.692Z,97574.78
2022-12-06T11:57:53.380Z,97571.31
2022-12-06T12:00:25.310Z,97564.91
2022-12-06T12:02:57.161Z,97565.75
2022-12-06T12:05:30.436Z,97572.44
2022-12-06T12:08:02.606Z,97558.28
2022-12-06T12:10:38.296Z,97561.59
2022-12-06T12:13:40.403Z,97551.75
2022-12-06T12:16:19.479Z,97546.47
2022-12-06T12:18:58.734Z,97551.63
2022-12-06T12:21:36.731Z,97541.06
2022-12-06T12:24:08.096Z,97545.38
2022-12-06T12:26:42.836Z,97534.69
2022-12-06T12:29:19.473Z,97542.31
2022-12-06T12:31:54.926Z,97537.75
2022-12-06T12:34:27.374Z,97535.84
2022-12-06T12:36:58.682Z,97537.22
2022-12-06T12:39:34.274Z,97532.78
2022-12-06T12:42:03.437Z,97539.72
2022-12-06T12:44:39.008Z,97536.94
2022-12-06T12:47:19.706Z,97535.03
2022-12-06T12:50:03.845Z,97528.91
2022-12-06T12:52:38.494Z,97523.63
2022-12-06T12:55:19.088Z,97533.06
2022-12-06T12:57:50.432Z,97532.13
2022-12-06T13:00:21.760Z,97530.28
2022-12-06T13:02:57.535Z,97529.19
2022-12-06T13:05:33.628Z,97526.56
2022-12-06T13:08:12.661Z,97528.22
2022-12-06T13:10:45.272Z,97528.22
2022-12-06T13:13:18.639Z,97531.84
2022-12-06T13:15:49.955Z,97524.72
2022-12-06T13:18:24.396Z,97522.94
2022-12-06T13:20:56.906Z,97514.75
2022-12-06T13:23:28.962Z,97516.41
2022-12-06T13:26:10.502Z,97516.53
2022-12-06T13:28:45.391Z,97509.47
2022-12-06T13:31:18.279Z,97512.78
2022-12-06T13:33:52.172Z,97506.53
2022-12-06T13:36:24.267Z,97497.63
2022-12-06T13:38:52.794Z,97508.19
2022-12-06T13:42:13.239Z,97504.56
2022-12-06T13:44:43.334Z,97495.00
2022-12-06T13:47:39.799Z,97491.66
2022-12-06T13:50:53.052Z,97491.81
2022-12-06T13:53:24.567Z,97491.09
2022-12-06T13:56:01.569Z,97491.09
2022-12-06T13:58:54.472Z,97496.25
2022-12-06T14:01:46.177Z,97495.00
2022-12-06T14:04:38.843Z,97495.13
2022-12-06T14:09:45.695Z,97480.38
2022-12-06T14:12:21.380Z,97487.50
2022-12-06T14:14:59.812Z,97490.41
2022-12-06T14:18:01.468Z,97491.34
2022-12-06T14:20:30.286Z,97494.13
2022-12-06T14:22:58.729Z,97500.38
2022-12-06T14:25:31.471Z,97503.03
2022-12-06T14:28:06.095Z,97506.50
2022-12-06T14:30:35.120Z,97511.78
2022-12-06T14:33:03.517Z,97505.81
2022-12-06T14:35:35.818Z,97499.69
2022-12-06T14:38:21.776Z,97503.31
2022-12-06T14:41:22.097Z,97493.59
2022-12-06T14:43:50.401Z,97499.94
2022-12-06T14:46:28.666Z,97498.16
2022-12-06T14:49:14.210Z,97489.38
2022-12-06T14:51:42.458Z,97481.75
2022-12-06T14:54:30.071Z,97488.84
2022-12-06T14:57:00.097Z,97490.78
2022-12-06T15:00:10.819Z,97491.63
2022-12-06T15:02:24.532Z,97490.91
2022-12-06T15:04:53.507Z,97490.06
2022-12-06T15:07:34.821Z,97492.84
2022-12-06T15:10:20.229Z,97496.47
2022-12-06T15:12:57.478Z,97492.28
2022-12-06T15:15:41.043Z,97494.22
2022-12-06T15:18:21.156Z,97483.09
2022-12-06T15:20:50.091Z,97481.88
2022-12-06T15:23:31.605Z,97484.66
2022-12-06T15:25:59.983Z,97485.47
2022-12-06T15:28:29.938Z,97488.09
2022-12-06T15:30:58.332Z,97487.28
2022-12-06T15:33:27.323Z,97481.28
2022-12-06T15:35:55.879Z,97483.22
2022-12-06T15:38:24.183Z,97472.81
2022-12-06T15:40:53.990Z,97479.91
2022-12-06T15:43:31.655Z,97476.44
2022-12-06T15:46:02.414Z,97475.56
2022-12-06T15:48:32.328Z,97474.91
2022-12-06T15:51:01.601Z,97475.88
2022-12-06T15:53:30.471Z,97482.94
2022-12-06T15:55:58.727Z,97485.59
2022-12-06T15:58:27.090Z,97482.25
2022-12-06T16:00:58.912Z,97475.16
2022-12-06T16:03:27.263Z,97473.63
2022-12-06T16:05:55.522Z,97480.44
2022-12-06T16:08:23.927Z,97477.94
2022-12-06T16:13:40.540Z,97467.53
2022-12-06T16:16:11.317Z,97462.38
2022-12-06T16:18:39.849Z,97467.78
2022-12-06T16:21:08.177Z,97461.94
2022-12-06T16:26:44.761Z,97459.56
2022-12-06T16:29:16.980Z,97457.91
2022-12-06T16:31:48.112Z,97458.03
2022-12-06T16:34:16.663Z,97453.75
2022-12-06T16:36:57.492Z,97459.84
2022-12-06T16:39:26.012Z,97455.53
2022-12-06T16:41:54.281Z,97453.75
2022-12-06T16:44:22.548Z,97452.06
2022-12-06T16:46:52.790Z,97454.69
2022-12-06T16:52:12.627Z,97446.91
2022-12-06T16:54:41.663Z,97449.53
2022-12-06T16:57:10.935Z,97446.09
2022-12-06T16:59:39.317Z,97446.22
2022-12-06T17:02:26.898Z,97447.31
2022-12-06T17:04:56.077Z,97451.63
2022-12-06T17:07:24.691Z,97455.34
2022-12-06T17:09:53.014Z,97455.22
2022-12-06T17:12:21.776Z,97450.94
2022-12-06T17:14:50.173Z,97466.75
2022-12-06T17:17:22.075Z,97462.44
2022-12-06T17:19:50.910Z,97472.28
2022-12-06T17:22:20.180Z,97475.19
2022-12-06T17:24:48.491Z,97474.34
2022-12-06T17:27:17.594Z,97475.47
2022-12-06T17:29:46.500Z,97477.97
2022-12-06T17:32:15.399Z,97472.94
2022-12-06T17:34:45.036Z,97472.25
2022-12-06T17:37:13.780Z,97471.44
2022-12-06T17:39:42.143Z,97476.84
2022-12-06T17:42:29.984Z,97473.22
2022-12-06T17:44:58.928Z,97484.03
2022-12-06T17:47:28.799Z,97478.06
2022-12-06T17:49:58.675Z,97482.63
2022-12-06T17:52:27.267Z,97489.69
2022-12-06T17:54:55.564Z,97479.28
2022-12-06T17:57:23.902Z,97485.66
2022-12-06T17:59:52.321Z,97479.41
2022-12-06T18:02:26.032Z,97480.66
2022-12-06T18:04:56.191Z,97484.13
2022-12-06T18:07:26.710Z,97482.72
2022-12-06T18:09:55.077Z,97487.03
2022-12-06T18:12:23.541Z,97491.59
2022-12-06T18:14:51.921Z,97490.63
2022-12-06T18:17:20.276Z,97483.56
2022-12-06T18:19:48.554Z,97498.53
2022-12-06T18:22:17.204Z,97498.53
2022-12-06T18:24:46.851Z,97499.38
2022-12-06T18:27:15.241Z,97494.94
2022-12-06T18:29:43.727Z,97499.25
2022-12-06T18:32:12.091Z,97496.88
2022-12-06T18:34:40.408Z,97497.72
2022-12-06T18:37:09.273Z,97491.72
2022-12-06T18:39:37.659Z,97495.34
2022-12-06T18:42:07.478Z,97489.09
2022-12-06T18:44:35.733Z,97498.66
2022-12-06T18:47:04.038Z,97488.09
2022-12-06T18:49:32.498Z,97494.22
2022-12-06T18:52:00.848Z,97492.56
2022-12-06T18:54:29.343Z,97497.13
2022-12-06T18:56:59.475Z,97490.88
2022-12-06T18:59:29.401Z,97483.81
2022-12-06T19:01:57.895Z,97488.38
2022-12-06T19:04:26.344Z,97483.09
2022-12-06T19:06:54.654Z,97490.06
2022-12-06T19:09:23.956Z,97490.06
2022-12-06T19:11:52.380Z,97492.69
2022-12-06T19:14:21.221Z,97488.38
2022-12-06T19:16:52.957Z,97497.13
2022-12-06T19:19:24.024Z,97495.34
2022-12-06T19:21:54.424Z,97495.34
2022-12-06T19:24:26.723Z,97497.00
2022-12-06T19:26:57.966Z,97494.34
2022-12-06T19:29:27.012Z,97497.00
2022-12-06T19:31:56.946Z,97489.09
2022-12-06T19:34:27.503Z,97490.75
2022-12-06T19:36:57.054Z,97500.47
2022-12-06T19:39:26.171Z,97502.97
2022-12-06T19:42:17.411Z,97504.78
2022-12-06T19:44:45.721Z,97506.69
2022-12-06T19:47:15.442Z,97501.78
2022-12-06T19:49:43.704Z,97507.19
2022-12-06T19:52:12.080Z,97509.25
2022-12-06T19:54:41.706Z,97516.59
2022-12-06T19:57:10.041Z,97514.19
2022-12-06T19:59:39.301Z,97513.75
2022-12-06T20:02:08.723Z,97514.84
2022-12-06T20:04:41.960Z,97514.13
2022-12-06T20:07:10.824Z,97511.50
2022-12-06T20:09:39.463Z,97511.50
2022-12-06T20:12:08.710Z,97503.72
2022-12-06T20:14:41.203Z,97506.34
2022-12-06T20:17:12.279Z,97509.13
2022-12-06T20:19:46.095Z,97505.53
2022-12-06T20:22:15.659Z,97512.47
2022-12-06T20:24:44.815Z,97508.16
2022-12-06T20:27:13.281Z,97512.72
2022-12-06T20:29:41.843Z,97511.06
2022-12-06T20:32:11.396Z,97515.47
2022-12-06T20:34:41.090Z,97515.34
2022-12-06T20:37:09.460Z,97511.88
2022-12-06T20:39:37.778Z,97514.25
2022-12-06T20:42:07.343Z,97514.38
2022-12-06T20:44:36.202Z,97509.13
2022-12-06T20:47:04.669Z,97510.09
2022-12-06T20:49:33.136Z,97516.06
2022-12-06T20:52:03.720Z,97521.34
2022-12-06T20:54:32.099Z,97516.88
2022-12-06T20:57:00.419Z,97519.41
2022-12-06T20:59:29.479Z,97516.75
2022-12-06T21:01:58.169Z,97517.03
2022-12-06T21:04:27.456Z,97521.34
2022-12-06T21:06:56.702Z,97508.28
2022-12-06T21:09:26.710Z,97510.81
2022-12-06T21:11:55.072Z,97519.53
2022-12-06T21:14:23.528Z,97514.25
2022-12-06T21:16:51.844Z,97514.25
2022-12-06T21:19:24.214Z,97509.81
2022-12-06T21:21:57.767Z,97515.94
2022-12-06T21:24:27.481Z,97510.81
2022-12-06T21:26:56.131Z,97519.66
2022-12-06T21:29:31.022Z,97516.19
2022-12-06T21:32:01.972Z,97519.66
2022-12-06T21:34:30.302Z,97515.34
2022-12-06T21:36:58.908Z,97516.34
2022-12-06T21:39:28.629Z,97521.59
2022-12-06T21:41:57.396Z,97521.59
2022-12-06T21:44:25.825Z,97522.41
2022-12-06T21:46:54.753Z,97519.78
2022-12-06T21:49:23.101Z,97523.38
2022-12-06T21:51:56.681Z,97515.47
2022-12-06T21:54:30.082Z,97521.00
2022-12-06T21:56:58.642Z,97527.13
2022-12-06T21:59:26.961Z,97527.13
2022-12-06T22:01:55.546Z,97527.13
2022-12-06T22:04:24.006Z,97527.13
2022-12-06T22:06:52.398Z,97531.56
2022-12-06T22:09:20.650Z,97538.66
2022-12-06T22:11:50.407Z,97545.69
2022-12-06T22:14:18.750Z,97542.22
2022-12-06T22:16:47.030Z,97540.56
2022-12-06T22:19:15.252Z,97543.31
2022-12-06T22:21:43.480Z,97535.28
2022-12-06T22:24:11.849Z,97539.16
2022-12-06T22:26:40.174Z,97539.16
2022-12-06T22:29:10.602Z,97538.31
2022-12-06T22:31:39.003Z,97536.50
2022-12-06T22:34:07.503Z,97537.44
2022-12-06T22:36:35.879Z,97540.09
2022-12-06T22:39:06.010Z,97539.16
2022-12-06T22:41:35.131Z,97540.94
2022-12-06T22:44:07.104Z,97544.28
2022-12-06T22:46:37.682Z,97537.19
2022-12-06T22:49:06.956Z,97540.69
2022-12-06T22:51:37.841Z,97539.03
2022-12-06T22:54:08.766Z,97534.69
2022-12-06T22:56:37.014Z,97536.50
2022-12-06T22:59:05.822Z,97545.34
2022-12-06T23:01:36.602Z,97539.53
2022-12-06T23:04:07.558Z,97538.69
2022-12-06T23:06:37.544Z,97540.72
2022-12-06T23:09:06.534Z,97533.06
2022-12-06T23:11:37.471Z,97534.16
2022-12-06T23:14:07.603Z,97530.69
2022-12-06T23:16:37.746Z,97529.88
2022-12-06T23:19:06.412Z,97529.03
2022-12-06T23:21:36.926Z,97526.50
2022-12-06T23:24:08.105Z,97529.16
2022-12-06T23:26:39.320Z,97522.91
2022-12-06T23:29:08.362Z,97526.50
2022-12-06T23:31:41.276Z,97524.72
2022-12-06T23:34:14.363Z,97521.25
2022-12-06T23:36:43.503Z,97527.50
2022-12-06T23:39:12.990Z,97526.66
2022-12-06T23:41:41.867Z,97520.53
2022-12-06T23:44:13.358Z,97523.28
2022-12-06T23:46:45.817Z,97530.38
2022-12-06T23:49:18.952Z,97521.63
2022-12-06T23:51:47.793Z,97512.88
2022-12-06T23:54:18.526Z,97513.84
2022-12-06T23:56:47.540Z,97519.84
2022-12-06T23:59:18.127Z,97526.16
